»·PEaware :: UAL870 YSSY-KSFO

UAL870 :: YSSY-KSFO

FLIGHT INFORMATION

Flight Status: Arrived
Operator:
United Airlines
More flights by this operator :: More flights under this callsign
Pilot: Daniel O. (11975)
Aircraft: Unknown
(B789)
More flights by this aircraft type
Origin: YSSY Kingsford Smith Intl
Australia
Destination: KSFO San Francisco Intl
United States
More flights between these airports :: More routes between these airports
Route: HNL CREAN CINNY PIRAT2
File this flight plan on PilotEdge
Remarks:
Altitude:
(Current/Filed)
39,000ft
Speed:
(Current/Filed)
470kts
Departed: 30-Jan-20 02:44 AM
Arrived: 30-Jan-20 05:30 PM
Distance/Time
Traveled:
6448nm/14:46
Distance/Time
To Go:
Arrived

Flight Plot

Page will automatically refresh every two minutes.


Map Options




Map Legend


Flown Route
Filed Route
Departure Airport
Arrival Airport
Navaid (VOR, NDB)
Fix

Horizontal Profiles

Position Reports

Time Latitude Longitude Heading Altitude Ground
Speed
30-Jan-20 02:24 -33.938264 151.166224 254 30ft 0kts
30-Jan-20 02:25 -33.938264 151.166224 254 30ft 0kts
30-Jan-20 02:26 -33.938264 151.166224 254 30ft 0kts
30-Jan-20 02:27 -33.938264 151.166224 254 30ft 0kts
30-Jan-20 02:28 -33.938264 151.166224 254 30ft 0kts
30-Jan-20 02:29 -33.938264 151.166224 254 30ft 0kts
30-Jan-20 02:30 -33.938264 151.166224 254 30ft 0kts
30-Jan-20 02:31 -33.938264 151.166224 254 30ft 0kts
30-Jan-20 02:32 -33.938173 151.166609 253 31ft 2kts
30-Jan-20 02:33 -33.937902 151.167248 231 32ft 2kts
30-Jan-20 02:34 -33.937709 151.167500 221 32ft 0kts
30-Jan-20 02:35 -33.937709 151.167500 221 32ft 0kts
30-Jan-20 02:36 -33.938455 151.167387 163 32ft 15kts
30-Jan-20 02:37 -33.941197 151.169856 74 28ft 8kts
30-Jan-20 02:38 -33.942676 151.173028 167 26ft 21kts
30-Jan-20 02:39 -33.950267 151.175028 168 23ft 33kts
30-Jan-20 02:40 -33.957097 151.176745 168 20ft 14kts
30-Jan-20 02:41 -33.962838 151.178251 168 20ft 29kts
30-Jan-20 02:42 -33.963467 151.180465 348 20ft 39kts
30-Jan-20 02:43 -33.924686 151.170597 353 877ft 188kts
30-Jan-20 02:44 -33.858545 151.155418 350 2695ft 284kts
30-Jan-20 02:45 -33.780921 151.143774 9 6793ft 290kts
30-Jan-20 02:46 -33.712413 151.189140 48 10241ft 294kts
30-Jan-20 02:47 -33.653756 151.272991 49 11943ft 360kts
30-Jan-20 02:48 -33.587474 151.364969 49 15277ft 367kts
30-Jan-20 02:49 -33.524199 151.452055 48 17810ft 379kts
30-Jan-20 02:50 -33.453272 151.549213 48 20124ft 396kts
30-Jan-20 02:51 -33.379737 151.649671 48 22370ft 408kts
30-Jan-20 02:52 -33.304837 151.751746 47 24327ft 421kts
30-Jan-20 02:53 -33.226385 151.858186 48 26069ft 435kts
30-Jan-20 02:54 -33.145472 151.967757 49 27720ft 447kts
30-Jan-20 02:55 -33.061965 152.080506 49 29272ft 459kts
30-Jan-20 02:56 -32.977527 152.194238 50 31201ft 455kts
30-Jan-20 02:57 -32.894130 152.306216 50 32844ft 449kts
30-Jan-20 02:58 -32.811370 152.417065 51 33790ft 451kts
30-Jan-20 02:59 -32.728012 152.528318 51 34695ft 451kts
30-Jan-20 03:00 -32.644971 152.638743 51 35622ft 447kts
30-Jan-20 03:01 -32.562252 152.748440 51 36360ft 446kts
30-Jan-20 03:02 -32.479231 152.858236 51 37097ft 448kts
30-Jan-20 03:03 -32.396503 152.967286 51 37829ft 447kts
30-Jan-20 03:04 -32.313205 153.076762 51 38408ft 446kts
30-Jan-20 03:06 -32.230209 153.185568 51 38701ft 446kts
30-Jan-20 03:07 -32.147149 153.294126 51 38901ft 447kts
30-Jan-20 03:08 -32.063584 153.403025 51 39025ft 451kts
30-Jan-20 03:09 -31.978868 153.513140 51 39027ft 458kts
30-Jan-20 03:10 -31.892391 153.625139 51 39025ft 467kts
30-Jan-20 03:11 -31.804352 153.738803 50 39020ft 476kts
30-Jan-20 03:12 -31.714319 153.854672 50 39019ft 484kts
30-Jan-20 03:13 -31.623630 153.970948 50 39030ft 481kts
30-Jan-20 03:14 -31.533557 154.086141 50 39045ft 481kts
30-Jan-20 03:15 -31.442756 154.201938 50 39047ft 482kts
30-Jan-20 03:16 -31.352317 154.316912 50 39048ft 481kts
30-Jan-20 03:17 -31.261666 154.431789 50 39048ft 481kts
30-Jan-20 03:18 -31.170603 154.546857 50 39050ft 482kts
30-Jan-20 03:19 -31.079833 154.661188 50 39050ft 482kts
30-Jan-20 03:20 -30.988597 154.775764 50 39052ft 482kts
30-Jan-20 03:21 -30.897339 154.890016 50 39052ft 482kts
30-Jan-20 03:22 -30.806233 155.003754 50 39067ft 482kts
30-Jan-20 03:23 -30.714740 155.117630 50 39072ft 483kts
30-Jan-20 03:23 -30.638630 155.212064 50 39072ft 483kts
30-Jan-20 03:25 -30.531425 155.344730 50 39073ft 483kts
30-Jan-20 03:26 -30.439731 155.457851 50 39073ft 483kts
30-Jan-20 03:26 -30.363159 155.552048 50 39075ft 484kts
30-Jan-20 03:28 -30.255570 155.684041 49 39076ft 483kts
30-Jan-20 03:28 -30.178777 155.777940 49 39078ft 484kts
30-Jan-20 03:30 -30.070823 155.909595 49 39093ft 484kts
30-Jan-20 03:30 -29.993898 156.003152 49 39091ft 484kts
30-Jan-20 03:31 -29.901242 156.115499 49 39080ft 484kts
30-Jan-20 03:33 -29.793324 156.245951 49 39070ft 484kts
30-Jan-20 03:33 -29.716011 156.339173 49 39071ft 483kts
30-Jan-20 03:34 -29.623412 156.450485 49 39072ft 482kts
30-Jan-20 03:35 -29.530876 156.561435 49 39073ft 481kts
30-Jan-20 03:36 -29.438652 156.671698 49 39101ft 479kts
30-Jan-20 03:37 -29.346346 156.781739 49 39089ft 480kts
30-Jan-20 03:38 -29.254289 156.891188 49 39076ft 478kts
30-Jan-20 03:39 -29.162192 157.000369 49 39080ft 478kts
30-Jan-20 03:40 -29.069994 157.109391 49 39092ft 477kts
30-Jan-20 03:41 -28.977990 157.217862 49 39105ft 476kts
30-Jan-20 03:42 -28.886870 157.325039 49 39098ft 476kts
30-Jan-20 03:43 -28.794929 157.432840 49 39098ft 475kts
30-Jan-20 03:44 -28.703043 157.540304 49 39098ft 475kts
30-Jan-20 03:45 -28.611326 157.647301 49 39099ft 474kts
30-Jan-20 03:46 -28.519185 157.754487 48 39101ft 474kts
30-Jan-20 03:47 -28.427100 157.861325 48 39102ft 473kts
30-Jan-20 03:48 -28.335102 157.967808 48 39102ft 473kts
30-Jan-20 03:49 -28.243307 158.073742 48 39098ft 472kts
30-Jan-20 03:50 -28.151161 158.179821 48 39103ft 472kts
30-Jan-20 03:51 -28.059137 158.285486 48 39104ft 472kts
30-Jan-20 03:52 -27.966981 158.391056 48 39104ft 472kts
30-Jan-20 03:53 -27.874838 158.496299 48 39097ft 472kts
30-Jan-20 03:54 -27.782688 158.601288 48 39098ft 472kts
30-Jan-20 03:55 -27.690110 158.706498 47 39100ft 473kts
30-Jan-20 03:56 -27.597859 158.811061 47 39089ft 472kts
30-Jan-20 03:57 -27.505252 158.915779 47 39077ft 472kts
30-Jan-20 03:58 -27.412864 159.019975 47 39088ft 472kts
30-Jan-20 03:59 -27.320059 159.124355 47 39100ft 472kts
30-Jan-20 04:00 -27.227414 159.228340 47 39102ft 472kts
30-Jan-20 04:01 -27.134743 159.332051 47 39102ft 471kts
30-Jan-20 04:02 -27.042072 159.435529 47 39103ft 472kts
30-Jan-20 04:03 -26.949132 159.539053 47 39091ft 472kts
30-Jan-20 04:04 -26.856076 159.642450 47 39071ft 472kts
30-Jan-20 04:05 -26.762885 159.745756 46 39072ft 473kts
30-Jan-20 04:06 -26.669545 159.848948 46 39100ft 473kts
30-Jan-20 04:07 -26.576020 159.952092 46 39100ft 473kts
30-Jan-20 04:08 -26.482361 160.055130 46 39101ft 473kts
30-Jan-20 04:09 -26.388829 160.157796 46 39101ft 473kts
30-Jan-20 04:10 -26.294960 160.260590 46 39102ft 474kts
30-Jan-20 04:11 -26.201170 160.363044 46 39102ft 473kts
30-Jan-20 04:12 -26.107441 160.465186 46 39103ft 473kts
30-Jan-20 04:13 -26.013336 160.567499 46 39103ft 473kts
30-Jan-20 04:14 -25.919112 160.669689 46 39105ft 475kts
30-Jan-20 04:15 -25.824728 160.771824 46 39084ft 475kts
30-Jan-20 04:16 -25.730209 160.873849 46 39073ft 475kts
30-Jan-20 04:17 -25.635648 160.975696 46 39072ft 475kts
30-Jan-20 04:18 -25.540798 161.077605 46 39074ft 476kts
30-Jan-20 04:19 -25.446185 161.179036 46 39074ft 475kts
30-Jan-20 04:20 -25.351244 161.280571 46 39075ft 476kts
30-Jan-20 04:21 -25.256275 161.381928 46 39098ft 476kts
30-Jan-20 04:22 -25.161196 161.483155 46 39084ft 476kts
30-Jan-20 04:23 -25.066057 161.584225 46 39077ft 477kts
30-Jan-20 04:24 -24.971834 161.684081 46 39079ft 477kts
30-Jan-20 04:25 -24.876199 161.785202 46 39071ft 477kts
30-Jan-20 04:26 -24.780591 161.886072 46 39072ft 478kts
30-Jan-20 04:27 -24.684544 161.987169 46 39072ft 479kts
30-Jan-20 04:28 -24.588454 162.088034 47 39072ft 477kts
30-Jan-20 04:29 -24.492789 162.188342 47 39074ft 478kts
30-Jan-20 04:30 -24.396384 162.289158 47 39074ft 479kts
30-Jan-20 04:31 -24.300426 162.389284 47 39075ft 478kts
30-Jan-20 04:32 -24.204251 162.489418 47 39076ft 478kts
30-Jan-20 04:33 -24.107641 162.589768 47 39069ft 478kts
30-Jan-20 04:34 -24.011376 162.689542 46 39055ft 478kts
30-Jan-20 04:35 -23.914919 162.789291 46 39053ft 480kts
30-Jan-20 04:36 -23.817995 162.889295 47 39044ft 479kts
30-Jan-20 04:37 -23.721496 162.988670 47 39045ft 479kts
30-Jan-20 04:38 -23.624615 163.088239 47 39045ft 479kts
30-Jan-20 04:39 -23.527799 163.187508 47 39047ft 479kts
30-Jan-20 04:40 -23.430957 163.286619 47 39047ft 478kts
30-Jan-20 04:41 -23.334228 163.385407 47 39047ft 478kts
30-Jan-20 04:42 -23.237445 163.484017 47 39048ft 478kts
30-Jan-20 04:43 -23.140605 163.582486 47 39049ft 478kts
30-Jan-20 04:44 -23.045148 163.679370 47 39052ft 479kts
30-Jan-20 04:45 -22.948245 163.777497 47 39053ft 479kts
30-Jan-20 04:46 -22.853294 163.873456 47 39043ft 479kts
30-Jan-20 04:47 -22.755921 163.971658 47 39040ft 479kts
30-Jan-20 04:48 -22.658692 164.069498 47 39028ft 477kts
30-Jan-20 04:49 -22.561666 164.166956 47 39020ft 478kts
30-Jan-20 04:50 -22.464378 164.264499 47 39019ft 478kts
30-Jan-20 04:51 -22.366765 164.362178 47 39020ft 477kts
30-Jan-20 04:52 -22.269677 164.459106 47 39021ft 477kts
30-Jan-20 04:53 -22.172338 164.556103 46 39022ft 477kts
30-Jan-20 04:54 -22.075062 164.652859 46 39023ft 477kts
30-Jan-20 04:55 -21.977517 164.749710 46 39025ft 476kts
30-Jan-20 04:56 -21.880487 164.845867 45 39017ft 475kts
30-Jan-20 04:57 -21.783431 164.941805 45 39018ft 474kts
30-Jan-20 04:58 -21.686732 165.037225 45 39018ft 473kts
30-Jan-20 04:59 -21.590099 165.132388 45 39019ft 472kts
30-Jan-20 05:00 -21.493295 165.227546 45 39019ft 471kts
30-Jan-20 05:01 -21.396693 165.322327 44 39020ft 470kts
30-Jan-20 05:02 -21.300606 165.416439 44 39020ft 470kts
30-Jan-20 05:03 -21.204021 165.510853 44 39021ft 469kts
30-Jan-20 05:04 -21.107813 165.604742 44 39021ft 469kts
30-Jan-20 05:05 -21.011502 165.698552 43 39022ft 468kts
30-Jan-20 05:06 -20.915189 165.792196 43 39025ft 471kts
30-Jan-20 05:07 -20.817446 165.887078 43 39015ft 476kts
30-Jan-20 05:08 -20.719984 165.981451 42 39005ft 473kts
30-Jan-20 05:09 -20.623635 166.074806 41 38992ft 466kts
30-Jan-20 05:10 -20.527222 166.167709 41 38994ft 468kts
30-Jan-20 05:11 -20.430725 166.260606 41 38993ft 469kts
30-Jan-20 05:12 -20.334398 166.353229 41 38994ft 468kts
30-Jan-20 05:13 -20.237671 166.446101 41 38994ft 468kts
30-Jan-20 05:14 -20.141115 166.538662 41 38994ft 467kts
30-Jan-20 05:15 -20.045086 166.630563 41 38994ft 465kts
30-Jan-20 05:16 -19.949045 166.722473 39 38990ft 463kts
30-Jan-20 05:17 -19.853674 166.813385 39 38993ft 461kts
30-Jan-20 05:18 -19.758632 166.903834 38 38983ft 458kts
30-Jan-20 05:19 -19.664104 166.993653 38 38974ft 456kts
30-Jan-20 05:20 -19.570164 167.082762 37 38968ft 453kts
30-Jan-20 05:21 -19.476572 167.171394 37 38966ft 452kts
30-Jan-20 05:22 -19.382945 167.259917 36 38967ft 450kts
30-Jan-20 05:23 -19.289974 167.347686 36 38966ft 449kts
30-Jan-20 05:24 -19.196916 167.435400 36 38966ft 448kts
30-Jan-20 05:25 -19.104133 167.522735 35 38966ft 448kts
30-Jan-20 05:26 -19.011417 167.609881 35 38965ft 447kts
30-Jan-20 05:28 -18.918572 167.697005 34 38956ft 446kts
30-Jan-20 05:29 -18.827456 167.782379 33 38967ft 445kts
30-Jan-20 05:30 -18.735244 167.868658 33 38957ft 443kts
30-Jan-20 05:31 -18.643171 167.954645 32 38955ft 443kts
30-Jan-20 05:32 -18.551480 168.040316 31 38965ft 437kts
30-Jan-20 05:33 -18.461136 168.124364 30 38968ft 436kts
30-Jan-20 05:34 -18.369770 168.209113 30 38966ft 438kts
30-Jan-20 05:35 -18.278703 168.293650 30 38966ft 436kts
30-Jan-20 05:36 -18.187961 168.377740 30 38966ft 437kts
30-Jan-20 05:37 -18.096884 168.462002 30 38965ft 437kts
30-Jan-20 05:38 -18.005866 168.546153 30 38964ft 436kts
30-Jan-20 05:39 -17.914648 168.630343 30 38965ft 439kts
30-Jan-20 05:40 -17.823204 168.714643 30 38967ft 437kts
30-Jan-20 05:41 -17.732166 168.798428 30 38967ft 437kts
30-Jan-20 05:42 -17.640624 168.882546 31 38966ft 438kts
30-Jan-20 05:43 -17.549133 168.966532 31 38966ft 438kts
30-Jan-20 05:44 -17.457492 169.050530 31 38965ft 439kts
30-Jan-20 05:45 -17.365966 169.134306 31 38955ft 439kts
30-Jan-20 05:46 -17.258609 169.232430 31 38938ft 439kts
30-Jan-20 05:47 -17.182006 169.302339 31 38938ft 440kts
30-Jan-20 05:49 -16.997889 169.470063 31 38936ft 440kts
30-Jan-20 05:50 -16.874762 169.581953 32 38952ft 443kts
30-Jan-20 05:52 -16.720148 169.722197 32 38939ft 443kts
30-Jan-20 05:52 -16.642439 169.792532 32 38938ft 445kts
30-Jan-20 05:53 -16.549081 169.876978 32 38938ft 446kts
30-Jan-20 05:54 -16.455682 169.961341 32 38938ft 447kts
30-Jan-20 05:55 -16.361740 170.046060 32 38938ft 447kts
30-Jan-20 05:56 -16.268073 170.130478 32 38936ft 447kts
30-Jan-20 05:57 -16.174054 170.215080 32 38937ft 448kts
30-Jan-20 05:59 -16.064126 170.313864 32 38937ft 448kts
30-Jan-20 06:00 -15.938628 170.426380 33 38938ft 448kts
30-Jan-20 06:01 -15.875719 170.482716 33 38948ft 449kts
30-Jan-20 06:02 -15.765293 170.581517 33 38948ft 449kts
30-Jan-20 06:03 -15.639351 170.694006 33 38937ft 449kts
30-Jan-20 06:05 -15.481411 170.834818 33 38937ft 451kts
30-Jan-20 06:06 -15.338567 170.961940 34 38937ft 451kts
30-Jan-20 06:07 -15.227724 171.060401 34 38937ft 452kts
30-Jan-20 06:08 -15.132349 171.145017 34 38937ft 452kts
30-Jan-20 06:09 -15.037144 171.229379 34 38937ft 452kts
30-Jan-20 06:10 -14.941845 171.313719 34 38922ft 453kts
30-Jan-20 06:11 -14.846327 171.398150 34 38919ft 453kts
30-Jan-20 06:12 -14.751033 171.482274 34 38918ft 453kts
30-Jan-20 06:13 -14.655399 171.566600 35 38917ft 453kts
30-Jan-20 06:14 -14.560712 171.649991 35 38917ft 453kts
30-Jan-20 06:15 -14.465191 171.734026 35 38910ft 453kts
30-Jan-20 06:16 -14.369598 171.818020 35 38909ft 454kts
30-Jan-20 06:17 -14.273593 171.902291 35 38909ft 454kts
30-Jan-20 06:18 -14.177720 171.986328 35 38909ft 454kts
30-Jan-20 06:19 -14.081840 172.070306 35 38909ft 454kts
30-Jan-20 09:12 -8.899909 176.485581 39 38884ft 456kts
30-Jan-20 09:13 -8.899909 176.485581 39 38884ft 456kts
30-Jan-20 09:14 -8.899909 176.485581 39 38884ft 456kts
30-Jan-20 09:15 -8.899909 176.485581 39 38884ft 456kts
30-Jan-20 09:16 -8.899909 176.485581 39 38884ft 456kts
30-Jan-20 09:17 -8.899909 176.485581 39 38884ft 456kts
30-Jan-20 09:18 -8.899909 176.485581 39 38884ft 456kts
30-Jan-20 09:19 -8.899909 176.485581 39 38884ft 456kts
30-Jan-20 09:20 -8.899909 176.485581 39 38884ft 456kts
30-Jan-20 09:21 -8.899909 176.485581 39 38884ft 456kts
30-Jan-20 09:22 -8.899909 176.485581 39 38884ft 456kts
30-Jan-20 09:23 -8.899909 176.485581 39 38884ft 456kts
30-Jan-20 09:24 -8.899909 176.485581 39 38884ft 456kts
30-Jan-20 09:25 -8.899909 176.485581 39 38884ft 456kts
30-Jan-20 09:26 -8.899909 176.485581 39 38884ft 456kts
30-Jan-20 09:27 -8.899909 176.485581 39 38884ft 456kts
30-Jan-20 09:28 -8.899909 176.485581 39 38884ft 456kts
30-Jan-20 09:29 -8.899909 176.485581 39 38884ft 456kts
30-Jan-20 09:30 -8.899909 176.485581 39 38884ft 456kts
30-Jan-20 09:31 -8.899909 176.485581 39 38884ft 456kts
30-Jan-20 09:32 -8.899909 176.485581 39 38884ft 456kts
30-Jan-20 09:33 -8.899909 176.485581 39 38884ft 456kts
30-Jan-20 09:34 -8.899909 176.485581 39 38884ft 456kts
30-Jan-20 09:35 -8.899909 176.485581 39 38884ft 456kts
30-Jan-20 09:36 -8.899909 176.485581 39 38884ft 456kts
30-Jan-20 09:37 -8.899909 176.485581 39 38884ft 456kts
30-Jan-20 09:38 -8.899909 176.485581 39 38884ft 456kts
30-Jan-20 09:39 -8.899909 176.485581 39 38884ft 456kts
30-Jan-20 09:40 -8.899909 176.485581 39 38884ft 456kts
30-Jan-20 09:41 -8.899909 176.485581 39 38884ft 456kts
30-Jan-20 09:42 -8.899909 176.485581 39 38884ft 456kts
30-Jan-20 09:43 -8.899909 176.485581 39 38884ft 456kts
30-Jan-20 09:44 -8.899909 176.485581 39 38884ft 456kts
30-Jan-20 09:45 -8.899909 176.485581 39 38884ft 456kts
30-Jan-20 09:46 -8.899909 176.485581 39 38884ft 456kts
30-Jan-20 09:47 -8.899909 176.485581 39 38884ft 456kts
30-Jan-20 09:48 -8.899909 176.485581 39 38884ft 456kts
30-Jan-20 09:49 -8.899909 176.485581 39 38884ft 456kts
30-Jan-20 09:50 -8.899909 176.485581 39 38884ft 456kts
30-Jan-20 09:51 -8.899909 176.485581 39 38884ft 456kts
30-Jan-20 09:52 -8.899909 176.485581 39 38884ft 456kts
30-Jan-20 09:53 -8.899909 176.485581 39 38884ft 456kts
30-Jan-20 09:54 -8.899909 176.485581 39 38884ft 456kts
30-Jan-20 09:55 -8.899909 176.485581 39 38884ft 456kts
30-Jan-20 09:56 -8.899909 176.485581 39 38884ft 456kts
30-Jan-20 09:57 -8.899909 176.485581 39 38884ft 456kts
30-Jan-20 09:58 -8.899909 176.485581 39 38884ft 456kts
30-Jan-20 09:59 -8.899909 176.485581 39 38884ft 456kts
30-Jan-20 10:00 -8.899909 176.485581 39 38884ft 456kts
30-Jan-20 10:01 -8.899909 176.485581 39 38884ft 456kts
30-Jan-20 10:02 -8.899909 176.485581 39 38884ft 456kts
30-Jan-20 10:03 -8.899909 176.485581 39 38884ft 456kts
30-Jan-20 10:04 -8.899909 176.485581 39 38884ft 456kts
30-Jan-20 10:05 -8.899909 176.485581 39 38884ft 456kts
30-Jan-20 10:06 -8.899909 176.485581 39 38884ft 456kts
30-Jan-20 10:07 -8.899909 176.485581 39 38884ft 456kts
30-Jan-20 10:08 -8.899909 176.485581 39 38884ft 456kts
30-Jan-20 10:09 -8.899909 176.485581 39 38884ft 456kts
30-Jan-20 10:10 -8.899909 176.485581 39 38884ft 456kts
30-Jan-20 10:11 -8.899909 176.485581 39 38884ft 456kts
30-Jan-20 10:12 -8.899909 176.485581 39 38884ft 456kts
30-Jan-20 10:13 -8.899909 176.485581 39 38884ft 456kts
30-Jan-20 10:14 -8.899909 176.485581 39 38884ft 456kts
30-Jan-20 10:15 -8.899909 176.485581 39 38884ft 456kts
30-Jan-20 10:17 -8.899909 176.485581 39 38884ft 456kts
30-Jan-20 10:18 -8.899909 176.485581 39 38884ft 456kts
30-Jan-20 10:19 -8.899909 176.485581 39 38884ft 456kts
30-Jan-20 10:20 -8.899909 176.485581 39 38884ft 456kts
30-Jan-20 10:21 -8.899909 176.485581 39 38884ft 456kts
30-Jan-20 10:22 -8.899909 176.485581 39 38884ft 456kts
30-Jan-20 10:23 -8.899909 176.485581 39 38884ft 456kts
30-Jan-20 10:24 -8.899909 176.485581 39 38884ft 456kts
30-Jan-20 10:25 -8.899909 176.485581 39 38884ft 456kts
30-Jan-20 10:26 -8.899909 176.485581 39 38884ft 456kts
30-Jan-20 10:27 -8.899909 176.485581 39 38884ft 456kts
30-Jan-20 10:28 -8.899909 176.485581 39 38884ft 456kts
30-Jan-20 10:29 -8.899909 176.485581 39 38884ft 456kts
30-Jan-20 10:30 -8.899909 176.485581 39 38884ft 456kts
30-Jan-20 10:31 -8.899909 176.485581 39 38884ft 456kts
30-Jan-20 10:32 -8.899909 176.485581 39 38884ft 456kts
30-Jan-20 10:33 -8.899909 176.485581 39 38884ft 456kts
30-Jan-20 10:34 -8.899909 176.485581 39 38884ft 456kts
30-Jan-20 10:34 -8.899909 176.485581 39 38884ft 456kts
30-Jan-20 10:36 -8.899909 176.485581 39 38884ft 456kts
30-Jan-20 10:36 -8.899909 176.485581 39 38884ft 456kts
30-Jan-20 10:38 -8.899909 176.485581 39 38884ft 456kts
30-Jan-20 10:38 -8.899909 176.485581 39 38884ft 456kts
30-Jan-20 10:40 -8.899909 176.485581 39 38884ft 456kts
30-Jan-20 10:40 -8.899909 176.485581 39 38884ft 456kts
30-Jan-20 10:41 -8.899909 176.485581 39 38884ft 456kts
30-Jan-20 10:42 -8.899909 176.485581 39 38884ft 456kts
30-Jan-20 10:43 -8.899909 176.485581 39 38884ft 456kts
30-Jan-20 10:44 -8.899909 176.485581 39 38884ft 456kts
30-Jan-20 10:45 -8.899909 176.485581 39 38884ft 456kts
30-Jan-20 10:46 -8.899909 176.485581 39 38884ft 456kts
30-Jan-20 10:47 -8.899909 176.485581 39 38884ft 456kts
30-Jan-20 10:48 -8.899909 176.485581 39 38884ft 456kts
30-Jan-20 10:49 -8.899909 176.485581 39 38884ft 456kts
30-Jan-20 10:50 -8.899909 176.485581 39 38884ft 456kts
30-Jan-20 10:51 -8.899909 176.485581 39 38884ft 456kts
30-Jan-20 10:52 -8.899909 176.485581 39 38884ft 456kts
30-Jan-20 10:53 -8.899909 176.485581 39 38884ft 456kts
30-Jan-20 10:54 -8.899909 176.485581 39 38884ft 456kts
30-Jan-20 10:55 -8.899909 176.485581 39 38884ft 456kts
30-Jan-20 10:56 -8.899909 176.485581 39 38884ft 456kts
30-Jan-20 10:57 -8.899909 176.485581 39 38884ft 456kts
30-Jan-20 10:58 -8.899909 176.485581 39 38884ft 456kts
30-Jan-20 10:59 -8.899909 176.485581 39 38884ft 456kts
30-Jan-20 11:00 -8.899909 176.485581 39 38884ft 456kts
30-Jan-20 11:01 -8.899909 176.485581 39 38884ft 456kts
30-Jan-20 11:02 -8.899909 176.485581 39 38884ft 456kts
30-Jan-20 11:03 -8.899909 176.485581 39 38884ft 456kts
30-Jan-20 11:04 -8.899909 176.485581 39 38884ft 456kts
30-Jan-20 11:05 -8.899909 176.485581 39 38884ft 456kts
30-Jan-20 11:06 -8.899909 176.485581 39 38884ft 456kts
30-Jan-20 11:07 -8.899909 176.485581 39 38884ft 456kts
30-Jan-20 11:08 -8.899909 176.485581 39 38884ft 456kts
30-Jan-20 11:09 -8.899909 176.485581 39 38884ft 456kts
30-Jan-20 11:10 -8.899909 176.485581 39 38884ft 456kts
30-Jan-20 11:11 -8.899909 176.485581 39 38884ft 456kts
30-Jan-20 11:12 -8.899909 176.485581 39 38884ft 456kts
30-Jan-20 11:13 -8.899909 176.485581 39 38884ft 456kts
30-Jan-20 11:14 -8.899909 176.485581 39 38884ft 456kts
30-Jan-20 11:15 -8.899909 176.485581 39 38884ft 456kts
30-Jan-20 11:16 -8.899909 176.485581 39 38884ft 456kts
30-Jan-20 11:17 -8.899909 176.485581 39 38884ft 456kts
30-Jan-20 11:18 -8.899909 176.485581 39 38884ft 456kts
30-Jan-20 11:19 -8.899909 176.485581 39 38884ft 456kts
30-Jan-20 11:20 -8.899909 176.485581 39 38884ft 456kts
30-Jan-20 11:21 -8.899909 176.485581 39 38884ft 456kts
30-Jan-20 11:22 -8.899909 176.485581 39 38884ft 456kts
30-Jan-20 11:23 -8.899909 176.485581 39 38884ft 456kts
30-Jan-20 11:24 -8.899909 176.485581 39 38884ft 456kts
30-Jan-20 11:25 -8.899909 176.485581 39 38884ft 456kts
30-Jan-20 11:26 -8.899909 176.485581 39 38884ft 456kts
30-Jan-20 11:27 -8.899909 176.485581 39 38884ft 456kts
30-Jan-20 11:28 -8.899909 176.485581 39 38884ft 456kts
30-Jan-20 11:29 -8.899909 176.485581 39 38884ft 456kts
30-Jan-20 11:30 -8.899909 176.485581 39 38884ft 456kts
30-Jan-20 11:31 -8.899909 176.485581 39 38884ft 456kts
30-Jan-20 11:32 -8.899909 176.485581 39 38884ft 456kts
30-Jan-20 11:33 -8.899909 176.485581 39 38884ft 456kts
30-Jan-20 11:34 -8.899909 176.485581 39 38884ft 456kts
30-Jan-20 11:35 -8.899909 176.485581 39 38884ft 456kts
30-Jan-20 11:36 -8.899909 176.485581 39 38884ft 456kts
30-Jan-20 11:37 -8.899909 176.485581 39 38884ft 456kts
30-Jan-20 11:38 -8.899909 176.485581 39 38884ft 456kts
30-Jan-20 11:39 -8.899909 176.485581 39 38884ft 456kts
30-Jan-20 11:40 -8.899909 176.485581 39 38884ft 456kts
30-Jan-20 11:41 -8.899909 176.485581 39 38884ft 456kts
30-Jan-20 11:42 -8.899909 176.485581 39 38884ft 456kts
30-Jan-20 11:43 -8.899909 176.485581 39 38884ft 456kts
30-Jan-20 11:44 -8.899909 176.485581 39 38884ft 456kts
30-Jan-20 11:45 -8.899909 176.485581 39 38884ft 456kts
30-Jan-20 11:46 -8.899909 176.485581 39 38884ft 456kts
30-Jan-20 11:47 -8.899909 176.485581 39 38884ft 456kts
30-Jan-20 11:48 -8.899909 176.485581 39 38884ft 456kts
30-Jan-20 11:49 -8.899909 176.485581 39 38884ft 456kts
30-Jan-20 11:50 -8.899909 176.485581 39 38884ft 456kts
30-Jan-20 11:51 -8.899909 176.485581 39 38884ft 456kts
30-Jan-20 11:52 -8.899909 176.485581 39 38884ft 456kts
30-Jan-20 11:53 -8.899909 176.485581 39 38884ft 456kts
30-Jan-20 11:54 -8.899909 176.485581 39 38884ft 456kts
30-Jan-20 11:55 -8.899909 176.485581 39 38884ft 456kts
30-Jan-20 11:56 -8.899909 176.485581 39 38884ft 456kts
30-Jan-20 11:57 -8.899909 176.485581 39 38884ft 456kts
30-Jan-20 11:58 -8.899909 176.485581 39 38884ft 456kts
30-Jan-20 11:59 -8.899909 176.485581 39 38884ft 456kts
30-Jan-20 12:00 -8.899909 176.485581 39 38884ft 456kts
30-Jan-20 12:01 -8.899909 176.485581 39 38884ft 456kts
30-Jan-20 12:02 -8.899909 176.485581 39 38884ft 456kts
30-Jan-20 12:03 -8.899909 176.485581 39 38884ft 456kts
30-Jan-20 12:04 -8.899909 176.485581 39 38884ft 456kts
30-Jan-20 12:05 -8.899909 176.485581 39 38884ft 456kts
30-Jan-20 12:06 -8.899909 176.485581 39 38884ft 456kts
30-Jan-20 12:07 -8.899909 176.485581 39 38884ft 456kts
30-Jan-20 12:08 -8.845130 176.531105 40 38881ft 451kts
30-Jan-20 12:09 -8.748775 176.611334 40 38884ft 451kts
30-Jan-20 12:10 -8.651520 176.692240 40 38886ft 453kts
30-Jan-20 12:11 -7.349702 177.860596 37 39144ft 431kts
30-Jan-20 12:12 -2.007608 -177.530899 37 39144ft 431kts
30-Jan-20 12:13 2.984294 -173.583267 37 39144ft 431kts
30-Jan-20 12:14 10.040780 -167.936401 37 39144ft 431kts
30-Jan-20 12:15 18.030970 -161.099670 38 39144ft 431kts
30-Jan-20 12:16 20.985575 -158.624222 39 39144ft 431kts
30-Jan-20 12:17 21.197844 -158.138458 39 39144ft 431kts
30-Jan-20 12:18 21.303660 -157.969984 39 39253ft 424kts
30-Jan-20 12:19 21.385265 -157.877198 51 39145ft 443kts
30-Jan-20 12:20 21.453881 -157.765519 53 39160ft 454kts
30-Jan-20 12:21 21.524697 -157.651870 52 39162ft 465kts
30-Jan-20 12:22 21.598007 -157.535275 52 39164ft 477kts
30-Jan-20 12:23 21.673284 -157.415841 53 39166ft 492kts
30-Jan-20 12:25 21.750920 -157.292549 53 39153ft 501kts
30-Jan-20 12:26 21.828554 -157.169026 53 39153ft 498kts
30-Jan-20 12:27 21.906124 -157.045426 53 39155ft 500kts
30-Jan-20 12:28 21.983924 -156.921192 53 39157ft 502kts
30-Jan-20 12:29 22.062261 -156.795752 53 39160ft 507kts
30-Jan-20 12:30 22.140786 -156.669788 54 39160ft 508kts
30-Jan-20 12:31 22.219309 -156.543522 54 39166ft 508kts
30-Jan-20 12:32 22.297823 -156.416947 54 39170ft 508kts
30-Jan-20 12:33 22.376548 -156.289729 54 39160ft 509kts
30-Jan-20 12:34 22.454890 -156.162792 54 39160ft 510kts
30-Jan-20 12:35 22.533303 -156.035454 54 39157ft 509kts
30-Jan-20 12:36 22.611947 -155.907597 55 39157ft 512kts
30-Jan-20 12:37 22.690616 -155.779188 55 39159ft 513kts
30-Jan-20 12:38 22.769242 -155.650573 55 39161ft 513kts
30-Jan-20 12:39 22.847697 -155.521923 55 39163ft 514kts
30-Jan-20 12:40 22.926479 -155.392412 55 39165ft 515kts
30-Jan-20 12:41 23.005051 -155.262987 56 39155ft 514kts
30-Jan-20 12:42 23.083421 -155.133499 56 39158ft 515kts
30-Jan-20 12:42 23.148924 -155.025059 56 39152ft 514kts
30-Jan-20 12:44 23.239914 -154.874019 56 39149ft 515kts
30-Jan-20 12:45 23.318305 -154.743530 56 39147ft 515kts
30-Jan-20 12:46 23.396361 -154.613301 56 39149ft 515kts
30-Jan-20 12:46 23.461249 -154.504773 56 39151ft 515kts
30-Jan-20 12:47 23.539291 -154.373924 56 39153ft 515kts
30-Jan-20 12:48 23.616977 -154.243376 57 39144ft 516kts
30-Jan-20 12:49 23.694806 -154.112215 57 39146ft 516kts
30-Jan-20 12:50 23.772513 -153.980905 57 39151ft 516kts
30-Jan-20 12:51 23.850290 -153.849100 57 39158ft 516kts
30-Jan-20 12:52 23.927631 -153.717710 57 39152ft 515kts
30-Jan-20 12:53 24.004703 -153.586403 57 39146ft 515kts
30-Jan-20 12:54 24.082146 -153.454207 57 39148ft 516kts
30-Jan-20 12:55 24.159360 -153.322006 57 39130ft 515kts
30-Jan-20 12:56 24.236164 -153.190151 57 39132ft 515kts
30-Jan-20 12:57 24.312773 -153.058225 57 39139ft 515kts
30-Jan-20 12:58 24.389393 -152.925995 57 39156ft 514kts
30-Jan-20 12:59 24.465818 -152.793740 57 39166ft 514kts
30-Jan-20 13:00 24.542195 -152.661194 57 39168ft 513kts
30-Jan-20 13:01 24.617921 -152.529372 57 39170ft 513kts
30-Jan-20 13:02 24.693924 -152.396771 57 39172ft 513kts
30-Jan-20 13:03 24.769679 -152.264243 58 39163ft 512kts
30-Jan-20 13:04 24.845486 -152.131226 58 39167ft 514kts
30-Jan-20 13:05 24.921138 -151.998145 58 39178ft 514kts
30-Jan-20 13:06 24.996450 -151.865169 57 39187ft 511kts
30-Jan-20 13:07 25.071792 -151.731933 58 39190ft 513kts
30-Jan-20 13:08 25.146949 -151.598567 58 39182ft 513kts
30-Jan-20 13:09 25.221882 -151.465235 58 39176ft 513kts
30-Jan-20 13:10 25.296857 -151.331452 58 39161ft 513kts
30-Jan-20 13:11 25.371638 -151.197626 58 39162ft 512kts
30-Jan-20 13:12 25.446365 -151.063490 58 39172ft 512kts
30-Jan-20 13:13 25.520691 -150.929735 58 39183ft 511kts
30-Jan-20 13:14 25.594870 -150.795844 58 39185ft 511kts
30-Jan-20 13:15 25.668744 -150.662119 58 39187ft 510kts
30-Jan-20 13:16 25.742776 -150.527715 58 39189ft 511kts
30-Jan-20 13:17 25.816580 -150.393334 58 39193ft 509kts
30-Jan-20 13:18 25.889993 -150.259299 58 39190ft 509kts
30-Jan-20 13:19 25.963301 -150.125045 58 39193ft 510kts
30-Jan-20 13:20 26.036606 -149.990397 58 39195ft 510kts
30-Jan-20 13:21 26.109934 -149.855307 58 39192ft 510kts
30-Jan-20 13:23 26.195041 -149.698017 58 39193ft 510kts
30-Jan-20 13:23 26.255752 -149.585471 58 39194ft 510kts
30-Jan-20 13:24 26.328576 -149.450107 58 39196ft 510kts
30-Jan-20 13:25 26.401156 -149.314805 59 39189ft 509kts
30-Jan-20 13:26 26.473762 -149.179031 59 39190ft 509kts
30-Jan-20 13:27 26.545975 -149.043536 59 39191ft 509kts
30-Jan-20 13:28 26.618002 -148.908050 59 39198ft 509kts
30-Jan-20 13:29 26.690032 -148.772133 59 39203ft 508kts
30-Jan-20 13:30 26.761913 -148.636029 59 39207ft 508kts
30-Jan-20 13:31 26.833463 -148.500200 59 39208ft 507kts
30-Jan-20 13:32 26.904828 -148.364315 59 39210ft 508kts
30-Jan-20 13:33 26.975737 -148.228856 59 39201ft 507kts
30-Jan-20 13:34 27.046858 -148.092552 59 39203ft 508kts
30-Jan-20 13:35 27.118072 -147.955602 59 39196ft 506kts
30-Jan-20 13:36 27.188495 -147.819793 59 39201ft 505kts
30-Jan-20 13:37 27.259216 -147.683055 59 39202ft 506kts
30-Jan-20 13:38 27.329492 -147.546667 59 39204ft 506kts
30-Jan-20 13:39 27.399860 -147.409689 59 39206ft 505kts
30-Jan-20 13:40 27.469905 -147.272904 60 39198ft 504kts
30-Jan-20 13:41 27.539731 -147.136080 59 39193ft 504kts
30-Jan-20 13:42 27.609205 -146.999559 60 39138ft 502kts
30-Jan-20 13:43 27.678594 -146.862742 60 39112ft 501kts
30-Jan-20 13:44 27.747547 -146.726342 59 39113ft 501kts
30-Jan-20 13:45 27.816384 -146.589753 59 39114ft 501kts
30-Jan-20 13:46 27.884837 -146.453446 59 39115ft 500kts
30-Jan-20 13:47 27.953188 -146.316960 60 39109ft 499kts
30-Jan-20 13:48 28.021613 -146.179899 60 39110ft 500kts
30-Jan-20 13:49 28.089664 -146.043099 60 39112ft 500kts
30-Jan-20 13:50 28.157596 -145.906098 60 39108ft 500kts
30-Jan-20 13:51 28.225595 -145.768513 60 39110ft 500kts
30-Jan-20 13:52 28.293080 -145.631521 60 39111ft 500kts
30-Jan-20 13:53 28.360922 -145.493328 60 39113ft 501kts
30-Jan-20 13:54 28.428372 -145.355477 60 39114ft 501kts
30-Jan-20 13:55 28.495869 -145.217104 60 39107ft 500kts
30-Jan-20 13:56 28.563232 -145.078480 60 39109ft 501kts
30-Jan-20 13:57 28.630175 -144.940303 60 39110ft 499kts
30-Jan-20 13:58 28.697050 -144.801786 60 39109ft 500kts
30-Jan-20 13:59 28.763627 -144.663405 60 39104ft 499kts
30-Jan-20 14:00 28.830260 -144.524469 60 39106ft 499kts
30-Jan-20 14:01 28.896674 -144.385506 60 39107ft 499kts
30-Jan-20 14:02 28.963046 -144.246174 61 39100ft 499kts
30-Jan-20 14:03 29.029256 -144.106678 61 39102ft 501kts
30-Jan-20 14:04 29.095274 -143.967072 60 39104ft 500kts
30-Jan-20 14:05 29.160922 -143.827750 60 39101ft 498kts
30-Jan-20 14:06 29.226598 -143.687980 60 39102ft 500kts
30-Jan-20 14:07 29.292230 -143.547774 60 39103ft 499kts
30-Jan-20 14:08 29.357583 -143.407669 60 39105ft 499kts
30-Jan-20 14:09 29.422841 -143.267279 61 39097ft 499kts
30-Jan-20 14:10 29.487614 -143.127409 61 39099ft 498kts
30-Jan-20 14:11 29.552518 -142.986754 61 39100ft 497kts
30-Jan-20 14:12 29.616897 -142.846783 61 39102ft 497kts
30-Jan-20 14:13 29.681167 -142.706485 61 39101ft 496kts
30-Jan-20 14:14 29.745379 -142.565888 61 39096ft 496kts
30-Jan-20 14:15 29.809025 -142.425975 61 39096ft 495kts
30-Jan-20 14:16 29.872915 -142.285050 61 39090ft 495kts
30-Jan-20 14:17 29.936495 -142.144302 61 39091ft 495kts
30-Jan-20 14:18 29.999654 -142.003940 61 39089ft 495kts
30-Jan-20 14:19 30.063006 -141.862643 61 39093ft 495kts
30-Jan-20 14:20 30.125942 -141.721746 61 39091ft 496kts
30-Jan-20 14:21 30.188945 -141.580218 61 39093ft 497kts
30-Jan-20 14:22 30.251948 -141.438135 61 39095ft 497kts
30-Jan-20 14:23 30.314961 -141.295513 62 39089ft 498kts
30-Jan-20 14:24 30.377739 -141.152853 62 39089ft 499kts
30-Jan-20 14:25 30.440539 -141.009642 61 39087ft 499kts
30-Jan-20 14:26 30.503100 -140.866437 61 39084ft 499kts
30-Jan-20 14:27 30.565463 -140.723165 61 39085ft 499kts
30-Jan-20 14:28 30.627829 -140.579332 61 39086ft 498kts
30-Jan-20 14:29 30.689920 -140.435585 61 39087ft 498kts
30-Jan-20 14:30 30.751702 -140.291990 61 39080ft 498kts
30-Jan-20 14:31 30.813407 -140.148057 61 39081ft 498kts
30-Jan-20 14:32 30.875049 -140.003677 61 39093ft 499kts
30-Jan-20 14:33 30.936379 -139.859341 61 39101ft 496kts
30-Jan-20 14:34 30.997438 -139.715268 61 39103ft 497kts
30-Jan-20 14:35 31.058323 -139.571021 61 39104ft 497kts
30-Jan-20 14:36 31.118605 -139.427616 61 39105ft 497kts
30-Jan-20 14:37 31.179084 -139.283175 61 39097ft 496kts
30-Jan-20 14:38 31.239448 -139.138438 61 39099ft 497kts
30-Jan-20 14:39 31.299667 -138.993474 61 39100ft 495kts
30-Jan-20 14:41 31.359534 -138.848752 61 39102ft 495kts
30-Jan-20 14:42 31.419410 -138.703452 61 39103ft 495kts
30-Jan-20 14:43 31.478924 -138.558473 61 39104ft 495kts
30-Jan-20 14:44 31.538209 -138.413458 61 39105ft 495kts
30-Jan-20 14:45 31.596654 -138.269913 62 39098ft 496kts
30-Jan-20 14:46 31.655780 -138.124119 62 39102ft 496kts
30-Jan-20 14:47 31.714939 -137.977632 62 39113ft 495kts
30-Jan-20 14:48 31.773589 -137.831793 62 39115ft 494kts
30-Jan-20 14:49 31.831907 -137.686173 62 39120ft 494kts
30-Jan-20 14:50 31.890245 -137.539898 62 39122ft 493kts
30-Jan-20 14:51 31.948088 -137.394266 61 39123ft 491kts
30-Jan-20 14:52 32.005597 -137.248913 62 39103ft 489kts
30-Jan-20 14:53 32.063061 -137.103115 62 39108ft 493kts
30-Jan-20 14:54 32.120466 -136.956719 62 39112ft 490kts
30-Jan-20 14:55 32.177213 -136.811492 61 39119ft 488kts
30-Jan-20 14:56 32.233751 -136.666173 61 39122ft 486kts
30-Jan-20 14:57 32.289908 -136.521248 61 39123ft 485kts
30-Jan-20 14:58 32.345648 -136.376816 61 39124ft 484kts
30-Jan-20 14:59 32.401230 -136.232252 62 39117ft 483kts
30-Jan-20 15:00 32.456656 -136.087409 62 39118ft 483kts
30-Jan-20 15:01 32.511854 -135.942459 61 39118ft 482kts
30-Jan-20 15:01 32.557438 -135.822350 61 39119ft 481kts
30-Jan-20 15:03 32.564515 -135.803672 61 39120ft 481kts
30-Jan-20 15:03 32.564515 -135.803672 61 39120ft 481kts
30-Jan-20 15:05 32.564515 -135.803672 61 39120ft 481kts
30-Jan-20 15:05 32.564515 -135.803672 61 39120ft 481kts
30-Jan-20 15:07 32.564515 -135.803672 61 39120ft 481kts
30-Jan-20 15:07 32.564515 -135.803672 61 39120ft 481kts
30-Jan-20 15:08 32.564515 -135.803672 61 39120ft 481kts
30-Jan-20 15:09 32.564515 -135.803672 61 39120ft 481kts
30-Jan-20 15:10 32.564515 -135.803672 61 39120ft 481kts
30-Jan-20 15:11 32.564515 -135.803672 61 39120ft 481kts
30-Jan-20 15:12 32.564515 -135.803672 61 39120ft 481kts
30-Jan-20 15:13 32.564515 -135.803672 61 39120ft 481kts
30-Jan-20 15:14 32.564515 -135.803672 61 39120ft 481kts
30-Jan-20 15:15 32.564515 -135.803672 61 39120ft 481kts
30-Jan-20 15:16 32.564515 -135.803672 61 39120ft 481kts
30-Jan-20 15:17 32.564515 -135.803672 61 39120ft 481kts
30-Jan-20 15:18 32.564515 -135.803672 61 39120ft 481kts
30-Jan-20 15:19 32.564515 -135.803672 61 39120ft 481kts
30-Jan-20 15:20 32.564515 -135.803672 61 39120ft 481kts
30-Jan-20 15:21 32.564515 -135.803672 61 39120ft 481kts
30-Jan-20 15:22 32.564515 -135.803672 61 39120ft 481kts
30-Jan-20 15:23 32.564515 -135.803672 61 39120ft 481kts
30-Jan-20 15:24 32.564515 -135.803672 61 39120ft 481kts
30-Jan-20 15:25 32.564515 -135.803672 61 39120ft 481kts
30-Jan-20 15:26 32.564515 -135.803672 61 39120ft 481kts
30-Jan-20 15:27 32.564515 -135.803672 61 39120ft 481kts
30-Jan-20 15:28 32.564515 -135.803672 61 39120ft 481kts
30-Jan-20 15:29 32.564515 -135.803672 61 39120ft 481kts
30-Jan-20 15:30 32.564515 -135.803672 61 39120ft 481kts
30-Jan-20 15:31 32.564515 -135.803672 61 39120ft 481kts
30-Jan-20 15:32 32.564515 -135.803672 61 39120ft 481kts
30-Jan-20 15:33 32.564515 -135.803672 61 39120ft 481kts
30-Jan-20 15:34 32.564515 -135.803672 61 39120ft 481kts
30-Jan-20 15:35 32.564515 -135.803672 61 39120ft 481kts
30-Jan-20 15:36 32.564515 -135.803672 61 39120ft 481kts
30-Jan-20 15:37 32.564515 -135.803672 61 39120ft 481kts
30-Jan-20 15:38 32.564515 -135.803672 61 39120ft 481kts
30-Jan-20 15:39 32.564515 -135.803672 61 39120ft 481kts
30-Jan-20 15:40 32.564515 -135.803672 61 39120ft 481kts
30-Jan-20 15:41 32.564515 -135.803672 61 39120ft 481kts
30-Jan-20 15:42 32.564515 -135.803672 61 39120ft 481kts
30-Jan-20 15:43 32.564515 -135.803672 61 39120ft 481kts
30-Jan-20 15:44 32.564515 -135.803672 61 39120ft 481kts
30-Jan-20 15:45 32.564515 -135.803672 61 39120ft 481kts
30-Jan-20 15:46 32.564515 -135.803672 61 39120ft 481kts
30-Jan-20 15:47 32.564515 -135.803672 61 39120ft 481kts
30-Jan-20 15:48 32.564515 -135.803672 61 39120ft 481kts
30-Jan-20 15:49 32.564515 -135.803672 61 39120ft 481kts
30-Jan-20 15:50 32.564515 -135.803672 61 39120ft 481kts
30-Jan-20 15:51 32.564515 -135.803672 61 39120ft 481kts
30-Jan-20 15:52 32.564515 -135.803672 61 39120ft 481kts
30-Jan-20 15:53 32.564515 -135.803672 61 39120ft 481kts
30-Jan-20 15:54 32.564515 -135.803672 61 39120ft 481kts
30-Jan-20 15:55 32.564515 -135.803672 61 39120ft 481kts
30-Jan-20 15:56 32.564515 -135.803672 61 39120ft 481kts
30-Jan-20 15:57 32.564515 -135.803672 61 39120ft 481kts
30-Jan-20 15:58 32.564515 -135.803672 61 39120ft 481kts
30-Jan-20 15:59 32.564515 -135.803672 61 39120ft 481kts
30-Jan-20 16:00 32.564515 -135.803672 61 39120ft 481kts
30-Jan-20 16:01 32.564515 -135.803672 61 39120ft 481kts
30-Jan-20 16:02 32.564515 -135.803672 61 39120ft 481kts
30-Jan-20 16:03 32.564515 -135.803672 61 39120ft 481kts
30-Jan-20 16:04 32.564515 -135.803672 61 39120ft 481kts
30-Jan-20 16:05 32.564515 -135.803672 61 39120ft 481kts
30-Jan-20 16:06 32.564515 -135.803672 61 39120ft 481kts
30-Jan-20 16:07 32.564515 -135.803672 61 39120ft 481kts
30-Jan-20 16:08 32.564515 -135.803672 61 39120ft 481kts
30-Jan-20 16:09 32.564515 -135.803672 61 39120ft 481kts
30-Jan-20 16:10 32.564515 -135.803672 61 39120ft 481kts
30-Jan-20 16:11 32.564515 -135.803672 61 39120ft 481kts
30-Jan-20 16:12 32.564515 -135.803672 61 39120ft 481kts
30-Jan-20 16:13 32.564515 -135.803672 61 39120ft 481kts
30-Jan-20 16:14 32.564515 -135.803672 61 39120ft 481kts
30-Jan-20 16:15 32.564515 -135.803672 61 39120ft 481kts
30-Jan-20 16:16 32.564515 -135.803672 61 39120ft 481kts
30-Jan-20 16:17 32.564515 -135.803672 61 39120ft 481kts
30-Jan-20 16:18 32.564515 -135.803672 61 39120ft 481kts
30-Jan-20 16:19 32.564515 -135.803672 61 39120ft 481kts
30-Jan-20 16:20 32.564515 -135.803672 61 39120ft 481kts
30-Jan-20 16:21 32.564515 -135.803672 61 39120ft 481kts
30-Jan-20 16:22 32.564515 -135.803672 61 39120ft 481kts
30-Jan-20 16:23 32.564515 -135.803672 61 39120ft 481kts
30-Jan-20 16:24 32.587715 -135.742376 61 39120ft 481kts
30-Jan-20 16:25 32.642400 -135.597398 61 39120ft 482kts
30-Jan-20 16:26 32.697086 -135.451769 61 39122ft 482kts
30-Jan-20 16:27 32.751364 -135.306644 62 39116ft 482kts
30-Jan-20 16:28 32.805515 -135.161201 62 39116ft 482kts
30-Jan-20 16:29 32.859494 -135.015584 62 39119ft 481kts
30-Jan-20 16:30 32.913276 -134.869873 62 39125ft 480kts
30-Jan-20 16:31 32.966939 -134.723849 62 39127ft 480kts
30-Jan-20 16:32 33.020261 -134.578130 62 39124ft 480kts
30-Jan-20 16:33 33.073274 -134.432560 61 39140ft 480kts
30-Jan-20 16:34 33.126201 -134.286688 62 39155ft 480kts
30-Jan-20 16:35 33.179107 -134.140182 62 39156ft 481kts
30-Jan-20 16:36 33.231734 -133.993800 62 39140ft 482kts
30-Jan-20 16:37 33.284060 -133.847407 62 39130ft 477kts
30-Jan-20 16:38 35.125031 -128.498047 64 39131ft 478kts
30-Jan-20 16:39 35.357389 -127.364763 63 39226ft 472kts
30-Jan-20 16:40 35.398949 -127.225220 64 39228ft 477kts
30-Jan-20 16:41 35.443892 -127.074784 64 39229ft 479kts
30-Jan-20 16:42 35.489766 -126.920750 64 39230ft 481kts
30-Jan-20 16:43 35.535630 -126.766105 64 39230ft 484kts
30-Jan-20 16:44 35.581520 -126.610484 65 39230ft 487kts
30-Jan-20 16:45 35.627558 -126.453462 65 39233ft 490kts
30-Jan-20 16:46 35.673544 -126.295638 66 39225ft 492kts
30-Jan-20 16:47 35.683127 -126.262642 66 39225ft 492kts
30-Jan-20 16:48 35.712482 -126.161301 66 39227ft 494kts
30-Jan-20 16:49 35.763359 -126.004850 63 39235ft 493kts
30-Jan-20 16:50 35.816374 -125.848767 63 39237ft 493kts
30-Jan-20 16:51 35.869225 -125.693213 62 39249ft 492kts
30-Jan-20 16:52 35.921880 -125.537799 62 39257ft 491kts
30-Jan-20 16:53 35.974383 -125.382116 62 39265ft 490kts
30-Jan-20 16:54 36.026532 -125.226783 63 39260ft 489kts
30-Jan-20 16:55 36.078462 -125.071326 63 39261ft 489kts
30-Jan-20 16:56 36.129522 -124.917779 63 38500ft 493kts
30-Jan-20 16:58 36.190198 -124.770434 51 37244ft 472kts
30-Jan-20 16:59 36.264358 -124.639158 47 35996ft 454kts
30-Jan-20 17:00 36.337153 -124.518497 46 34957ft 417kts
30-Jan-20 17:01 36.410551 -124.400660 45 33961ft 437kts
30-Jan-20 17:02 36.484024 -124.283047 46 32689ft 433kts
30-Jan-20 17:03 36.556545 -124.167173 46 31415ft 435kts
30-Jan-20 17:04 36.630574 -124.048686 47 30113ft 436kts
30-Jan-20 17:05 36.704956 -123.929299 47 28803ft 438kts
30-Jan-20 17:06 36.779540 -123.809105 47 27488ft 439kts
30-Jan-20 17:07 36.854224 -123.688279 47 26151ft 429kts
30-Jan-20 17:08 36.923591 -123.575298 47 24810ft 398kts
30-Jan-20 17:09 36.990291 -123.466731 47 23146ft 385kts
30-Jan-20 17:10 37.053459 -123.363457 46 21413ft 363kts
30-Jan-20 17:11 37.113207 -123.265513 47 19674ft 345kts
30-Jan-20 17:12 37.168706 -123.168686 57 17965ft 340kts
30-Jan-20 17:13 37.203216 -123.058955 64 16278ft 334kts
30-Jan-20 17:14 37.232661 -122.950203 65 14586ft 324kts
30-Jan-20 17:15 37.259501 -122.844083 65 12901ft 314kts
30-Jan-20 17:15 37.280848 -122.757913 64 11499ft 306kts
30-Jan-20 17:17 37.309185 -122.642110 68 9514ft 285kts
30-Jan-20 17:17 37.327698 -122.563102 69 8268ft 276kts
30-Jan-20 17:19 37.350847 -122.462181 68 8003ft 250kts
30-Jan-20 17:20 37.370538 -122.377091 69 8000ft 252kts
30-Jan-20 17:21 37.390075 -122.292322 69 7369ft 253kts
30-Jan-20 17:21 37.405811 -122.223815 68 6388ft 246kts
30-Jan-20 17:23 37.426842 -122.132665 66 4831ft 242kts
30-Jan-20 17:23 37.457293 -122.101753 348 3949ft 226kts
30-Jan-20 17:24 37.488852 -122.124341 324 3190ft 232kts
30-Jan-20 17:25 37.531063 -122.169950 305 3005ft 221kts
30-Jan-20 17:26 37.571252 -122.262808 300 1818ft 195kts
30-Jan-20 17:27 37.594123 -122.316554 299 793ft 139kts
30-Jan-20 17:28 37.611950 -122.359064 298 69ft 137kts
30-Jan-20 17:29 37.621731 -122.382531 271 23ft 14kts
30-Jan-20 17:30 37.620622 -122.384320 280 23ft 11kts
30-Jan-20 17:31 37.619235 -122.385447 158 23ft 1kts
30-Jan-20 17:32 37.618879 -122.385240 154 23ft 0kts
30-Jan-20 17:33 37.618879 -122.385240 154 23ft 0kts
30-Jan-20 17:34 37.618879 -122.385240 154 23ft 0kts
30-Jan-20 17:35 37.618879 -122.385240 154 23ft 0kts
30-Jan-20 17:36 37.618879 -122.385240 154 23ft 0kts
30-Jan-20 17:37 37.618879 -122.385240 154 23ft 0kts
30-Jan-20 17:38 37.618879 -122.385240 154 23ft 0kts
30-Jan-20 17:39 37.618879 -122.385240 154 23ft 0kts
30-Jan-20 17:40 37.618879 -122.385240 154 23ft 0kts
30-Jan-20 17:41 37.618879 -122.385240 154 23ft 0kts
30-Jan-20 17:42 37.618879 -122.385240 154 23ft 0kts
30-Jan-20 17:43 37.618879 -122.385240 154 23ft 0kts

Navigation Log

Ident Type
Flight plan parsing failed, navigation log unavailable